createdAt,value
2017-11-22T00:00:55.198Z,0
2017-11-22T00:01:55.765Z,0
2017-11-22T00:02:56.340Z,0
2017-11-22T00:03:56.912Z,0
2017-11-22T00:04:57.485Z,0
2017-11-22T00:05:58.056Z,0
2017-11-22T00:06:58.630Z,0
2017-11-22T00:07:59.202Z,0
2017-11-22T00:08:59.774Z,0
2017-11-22T00:10:00.347Z,0
2017-11-22T00:11:00.921Z,0
2017-11-22T00:12:01.494Z,0
2017-11-22T00:13:02.068Z,0
2017-11-22T00:14:02.642Z,0
2017-11-22T00:15:03.212Z,0
2017-11-22T00:16:03.792Z,0
2017-11-22T00:17:04.358Z,0
2017-11-22T00:18:04.935Z,0
2017-11-22T00:19:05.502Z,0
2017-11-22T00:20:06.073Z,0
2017-11-22T00:21:06.647Z,0
2017-11-22T00:22:07.221Z,0
2017-11-22T00:23:07.797Z,0
2017-11-22T00:24:08.364Z,0
2017-11-22T00:25:08.936Z,0
2017-11-22T00:26:09.511Z,0
2017-11-22T00:27:10.082Z,0
2017-11-22T00:28:10.653Z,0
2017-11-22T00:29:11.225Z,0
2017-11-22T00:30:11.798Z,0
2017-11-22T00:31:12.372Z,0
2017-11-22T00:32:12.943Z,0
2017-11-22T00:33:13.516Z,0
2017-11-22T00:34:14.087Z,0
2017-11-22T00:35:14.665Z,0
2017-11-22T00:36:15.233Z,0
2017-11-22T00:37:15.805Z,0
2017-11-22T00:38:16.377Z,0
2017-11-22T00:39:16.948Z,0
2017-11-22T00:40:17.521Z,0
2017-11-22T00:41:18.096Z,0
2017-11-22T00:42:18.666Z,0
2017-11-22T00:43:19.242Z,0
2017-11-22T00:44:19.811Z,0
2017-11-22T00:45:20.385Z,0
2017-11-22T00:46:20.960Z,0
2017-11-22T00:47:21.529Z,0
2017-11-22T00:48:22.100Z,0
2017-11-22T00:49:22.673Z,0
2017-11-22T00:50:23.246Z,0
2017-11-22T00:51:23.818Z,0
2017-11-22T00:52:24.391Z,0
2017-11-22T00:53:24.970Z,0
2017-11-22T00:54:25.536Z,0
2017-11-22T00:55:26.109Z,0
2017-11-22T00:56:26.684Z,0
2017-11-22T00:57:27.260Z,0
2017-11-22T00:58:27.827Z,0
2017-11-22T00:59:28.400Z,0
2017-11-22T01:00:28.973Z,0
2017-11-22T01:01:29.547Z,0
2017-11-22T01:02:30.117Z,0
2017-11-22T01:03:30.688Z,0
2017-11-22T01:04:31.259Z,0
2017-11-22T01:05:31.830Z,0
2017-11-22T01:06:32.412Z,0
2017-11-22T01:07:32.990Z,0
2017-11-22T01:08:33.564Z,0
2017-11-22T01:09:34.136Z,0
2017-11-22T01:10:34.709Z,0
2017-11-22T01:11:35.281Z,0
2017-11-22T01:12:35.854Z,0
2017-11-22T01:13:36.427Z,0
2017-11-22T01:14:37.000Z,0
2017-11-22T01:15:37.570Z,0
2017-11-22T01:16:38.144Z,0
2017-11-22T01:17:38.717Z,0
2017-11-22T01:18:39.287Z,0
2017-11-22T01:19:39.862Z,0
2017-11-22T01:20:40.433Z,0
2017-11-22T01:21:41.013Z,0
2017-11-22T01:22:41.579Z,0
2017-11-22T01:23:42.150Z,0
2017-11-22T01:24:42.722Z,0
2017-11-22T01:25:43.293Z,0
2017-11-22T01:26:43.866Z,0
2017-11-22T01:27:44.441Z,0
2017-11-22T01:28:45.027Z,0
2017-11-22T01:29:45.608Z,0
2017-11-22T01:30:46.178Z,0
2017-11-22T01:31:46.743Z,0
2017-11-22T01:32:47.315Z,0
2017-11-22T01:33:47.888Z,0
2017-11-22T01:34:48.461Z,0
2017-11-22T01:35:49.034Z,0
2017-11-22T01:36:49.610Z,0
2017-11-22T01:37:50.191Z,0
2017-11-22T01:38:50.764Z,0
2017-11-22T01:39:51.335Z,0
2017-11-22T01:40:51.909Z,0
2017-11-22T01:41:52.482Z,0
2017-11-22T01:42:53.056Z,0
2017-11-22T01:43:53.627Z,0
2017-11-22T01:44:54.202Z,0
2017-11-22T01:45:54.774Z,0
2017-11-22T01:46:55.355Z,0
2017-11-22T01:47:55.921Z,0
2017-11-22T01:48:56.494Z,0
2017-11-22T01:49:57.068Z,0
2017-11-22T01:50:57.641Z,0
2017-11-22T01:51:58.213Z,0
2017-11-22T01:52:58.784Z,0
2017-11-22T01:53:59.358Z,0
2017-11-22T01:54:59.932Z,0
2017-11-22T01:56:00.505Z,0
2017-11-22T01:57:01.077Z,0
2017-11-22T01:58:01.652Z,0
2017-11-22T01:59:02.222Z,0
2017-11-22T02:00:02.812Z,0
2017-11-22T02:01:03.385Z,0
2017-11-22T02:02:03.956Z,0
2017-11-22T02:03:04.529Z,0
2017-11-22T02:04:05.102Z,0
2017-11-22T02:05:05.675Z,0
2017-11-22T02:06:06.264Z,0
2017-11-22T02:07:06.842Z,0
2017-11-22T02:08:07.407Z,0
2017-11-22T02:09:07.980Z,0
2017-11-22T02:10:08.555Z,0
2017-11-22T02:11:09.128Z,0
2017-11-22T02:12:09.701Z,0
2017-11-22T02:13:10.274Z,0
2017-11-22T02:14:10.861Z,0
2017-11-22T02:15:11.432Z,0
2017-11-22T02:16:12.018Z,0
2017-11-22T02:17:12.602Z,0
2017-11-22T02:18:13.172Z,0
2017-11-22T02:19:13.740Z,0
2017-11-22T02:20:14.315Z,0
2017-11-22T02:21:14.888Z,0
2017-11-22T02:22:15.463Z,0
2017-11-22T02:23:16.034Z,0
2017-11-22T02:24:16.606Z,0
2017-11-22T02:25:17.179Z,0
2017-11-22T02:26:17.752Z,0
2017-11-22T02:27:18.326Z,0
2017-11-22T02:28:18.897Z,0
2017-11-22T02:29:19.469Z,0
2017-11-22T02:30:20.060Z,0
2017-11-22T02:31:20.618Z,0
2017-11-22T02:32:21.191Z,0
2017-11-22T02:33:21.763Z,0
2017-11-22T02:34:22.336Z,0
2017-11-22T02:35:22.909Z,0
2017-11-22T02:36:23.481Z,0
2017-11-22T02:37:24.054Z,0
2017-11-22T02:38:24.626Z,0
2017-11-22T02:39:25.200Z,0
2017-11-22T02:40:25.780Z,0
2017-11-22T02:41:26.347Z,0
2017-11-22T02:42:26.919Z,0
2017-11-22T02:43:27.507Z,0
2017-11-22T02:44:28.094Z,0
2017-11-22T02:45:28.669Z,0
2017-11-22T02:46:29.239Z,0
2017-11-22T02:47:29.815Z,0
2017-11-22T02:48:30.385Z,0
2017-11-22T02:49:30.967Z,0
2017-11-22T02:50:31.531Z,0
2017-11-22T02:51:32.105Z,0
2017-11-22T02:52:32.679Z,0
2017-11-22T02:53:33.252Z,0
2017-11-22T02:54:33.823Z,0
2017-11-22T02:55:34.396Z,0
2017-11-22T02:56:34.969Z,0
2017-11-22T02:57:35.543Z,0
2017-11-22T02:58:36.116Z,0
2017-11-22T02:59:36.688Z,0
2017-11-22T03:00:37.262Z,0
2017-11-22T03:01:37.836Z,0
2017-11-22T03:02:38.410Z,0
2017-11-22T03:03:38.982Z,0
2017-11-22T03:04:39.555Z,0
2017-11-22T03:05:40.129Z,0
2017-11-22T03:06:40.702Z,0
2017-11-22T03:07:41.276Z,0
2017-11-22T03:08:41.846Z,0
2017-11-22T03:09:42.419Z,0
2017-11-22T03:10:42.994Z,0
2017-11-22T03:11:43.566Z,0
2017-11-22T03:12:44.139Z,0
2017-11-22T03:13:44.711Z,0
2017-11-22T03:14:45.285Z,0
2017-11-22T03:15:45.859Z,0
2017-11-22T03:16:46.433Z,0
2017-11-22T03:17:47.011Z,0
2017-11-22T03:18:47.577Z,0
2017-11-22T03:19:48.151Z,0
2017-11-22T03:20:48.725Z,0
2017-11-22T03:21:49.298Z,0
2017-11-22T03:22:49.872Z,0
2017-11-22T03:23:50.446Z,0
2017-11-22T03:24:51.019Z,0
2017-11-22T03:25:51.591Z,0
2017-11-22T03:26:52.165Z,0
2017-11-22T03:27:52.737Z,0
2017-11-22T03:28:53.313Z,0
2017-11-22T03:29:53.889Z,0
2017-11-22T03:30:54.480Z,0
2017-11-22T03:31:55.045Z,0
2017-11-22T03:32:55.621Z,0
2017-11-22T03:33:56.193Z,0
2017-11-22T03:34:56.768Z,0
2017-11-22T03:35:57.339Z,0
2017-11-22T03:36:57.911Z,0
2017-11-22T03:37:58.486Z,0
2017-11-22T03:38:59.058Z,0
2017-11-22T03:39:59.631Z,0
2017-11-22T03:41:00.205Z,0
2017-11-22T03:42:00.777Z,0
2017-11-22T03:43:01.352Z,0
2017-11-22T03:44:01.924Z,0
2017-11-22T03:45:02.498Z,0
2017-11-22T03:46:03.070Z,0
2017-11-22T03:47:03.644Z,0
2017-11-22T03:48:04.223Z,0
2017-11-22T03:49:04.792Z,0
2017-11-22T03:50:05.363Z,0
2017-11-22T03:51:05.939Z,0
2017-11-22T03:52:06.510Z,0
2017-11-22T03:53:07.089Z,0
2017-11-22T03:54:07.658Z,0
2017-11-22T03:55:08.229Z,0
2017-11-22T03:56:08.805Z,0
2017-11-22T03:57:09.374Z,0
2017-11-22T03:58:09.946Z,0
2017-11-22T03:59:10.518Z,0
2017-11-22T04:00:11.093Z,0
2017-11-22T04:01:11.666Z,0
2017-11-22T04:02:12.238Z,0
2017-11-22T04:03:12.811Z,0
2017-11-22T04:04:13.383Z,0
2017-11-22T04:05:13.958Z,0
2017-11-22T04:06:14.531Z,0
2017-11-22T04:07:15.104Z,0
2017-11-22T04:08:15.677Z,0
2017-11-22T04:09:16.256Z,0
2017-11-22T04:10:16.830Z,0
2017-11-22T04:11:17.399Z,0
2017-11-22T04:12:17.970Z,0
2017-11-22T04:13:18.543Z,0
2017-11-22T04:14:19.118Z,0
2017-11-22T04:15:19.691Z,0
2017-11-22T04:16:20.264Z,0
2017-11-22T04:17:20.836Z,0
2017-11-22T04:18:21.409Z,0
2017-11-22T04:19:21.983Z,0
2017-11-22T04:20:22.560Z,0
2017-11-22T04:21:23.127Z,0
2017-11-22T04:22:23.702Z,0
2017-11-22T04:23:24.289Z,0
2017-11-22T04:24:24.863Z,0
2017-11-22T04:25:25.437Z,0
2017-11-22T04:26:26.025Z,0
2017-11-22T04:27:26.597Z,0
2017-11-22T04:28:27.171Z,0
2017-11-22T04:29:27.742Z,0
2017-11-22T04:30:28.329Z,0
2017-11-22T04:31:28.903Z,0
2017-11-22T04:32:29.477Z,0
2017-11-22T04:33:30.052Z,0
2017-11-22T04:34:30.623Z,0
2017-11-22T04:35:31.198Z,0
2017-11-22T04:36:31.786Z,0
2017-11-22T04:37:32.359Z,0
2017-11-22T04:38:32.933Z,0
2017-11-22T04:39:33.506Z,0
2017-11-22T04:40:34.080Z,0
2017-11-22T04:41:34.666Z,0
2017-11-22T04:42:35.241Z,0
2017-11-22T04:43:35.815Z,0
2017-11-22T04:44:36.388Z,0
2017-11-22T04:45:36.976Z,0
2017-11-22T04:46:37.548Z,0
2017-11-22T04:47:38.121Z,0
2017-11-22T04:48:38.694Z,0
2017-11-22T04:49:39.267Z,0
2017-11-22T04:50:39.840Z,0
2017-11-22T04:51:40.412Z,0
2017-11-22T04:52:41.001Z,0
2017-11-22T04:53:41.575Z,0
2017-11-22T04:54:42.148Z,0
2017-11-22T04:55:42.720Z,0
2017-11-22T04:56:43.312Z,0
2017-11-22T04:57:43.866Z,0
2017-11-22T04:58:44.440Z,0
2017-11-22T04:59:45.014Z,0
2017-11-22T05:00:45.589Z,0
2017-11-22T05:01:46.159Z,0
2017-11-22T05:02:46.732Z,0
2017-11-22T05:03:47.304Z,0
2017-11-22T05:04:47.879Z,0
2017-11-22T05:05:48.452Z,0
2017-11-22T05:06:49.025Z,0
2017-11-22T05:07:49.602Z,0
2017-11-22T05:08:50.172Z,0
2017-11-22T05:09:50.746Z,0
2017-11-22T05:10:51.317Z,0
2017-11-22T05:11:51.892Z,0
2017-11-22T05:12:52.470Z,0
2017-11-22T05:13:53.039Z,0
2017-11-22T05:14:53.612Z,0
2017-11-22T05:15:54.184Z,0
2017-11-22T05:16:54.763Z,0
2017-11-22T05:17:55.345Z,0
2017-11-22T05:18:55.925Z,0
2017-11-22T05:19:56.495Z,0
2017-11-22T05:20:57.064Z,0
2017-11-22T05:21:57.637Z,0
2017-11-22T05:22:58.210Z,0
2017-11-22T05:23:58.785Z,0
2017-11-22T05:24:59.356Z,0
2017-11-22T05:25:59.929Z,0
2017-11-22T05:27:00.505Z,0
2017-11-22T05:28:01.077Z,0
2017-11-22T05:29:01.666Z,0
2017-11-22T05:30:02.239Z,0
2017-11-22T05:31:02.827Z,0
2017-11-22T05:32:03.403Z,0
2017-11-22T05:33:03.972Z,0
2017-11-22T05:34:04.545Z,0
2017-11-22T05:35:05.118Z,0
2017-11-22T05:36:05.704Z,0
2017-11-22T05:37:06.279Z,0
2017-11-22T05:38:06.850Z,0
2017-11-22T05:39:07.422Z,0
2017-11-22T05:40:07.998Z,0
2017-11-22T05:41:08.581Z,0
2017-11-22T05:42:09.150Z,0
2017-11-22T05:43:09.729Z,0
2017-11-22T05:44:10.294Z,0
2017-11-22T05:45:10.866Z,0
2017-11-22T05:46:11.438Z,0
2017-11-22T05:47:12.009Z,0
2017-11-22T05:48:12.581Z,0
2017-11-22T05:49:13.155Z,0
2017-11-22T05:50:13.726Z,0
2017-11-22T05:51:14.306Z,0
2017-11-22T05:52:14.873Z,0
2017-11-22T05:53:15.459Z,0
2017-11-22T05:54:16.047Z,0
2017-11-22T05:55:16.619Z,0
2017-11-22T05:56:17.193Z,0
2017-11-22T05:57:17.765Z,0
2017-11-22T05:58:18.352Z,0
2017-11-22T05:59:18.926Z,0
2017-11-22T06:00:19.500Z,0
2017-11-22T06:01:20.089Z,0
2017-11-22T06:02:20.660Z,0
2017-11-22T06:03:21.231Z,0
2017-11-22T06:04:21.805Z,0
2017-11-22T06:05:22.392Z,0
2017-11-22T06:06:22.968Z,0
2017-11-22T06:07:23.543Z,0
2017-11-22T06:08:24.114Z,0
2017-11-22T06:09:24.691Z,0
2017-11-22T06:10:25.258Z,0
2017-11-22T06:11:25.833Z,0
2017-11-22T06:12:26.408Z,0
2017-11-22T06:13:26.980Z,0
2017-11-22T06:14:27.552Z,0
2017-11-22T06:15:28.126Z,0
2017-11-22T06:16:28.699Z,0
2017-11-22T06:17:29.275Z,0
2017-11-22T06:18:29.861Z,0
2017-11-22T06:19:30.434Z,0
2017-11-22T06:20:31.006Z,0
2017-11-22T06:21:31.588Z,0
2017-11-22T06:22:32.153Z,0
2017-11-22T06:23:32.728Z,0
2017-11-22T06:24:33.300Z,0
2017-11-22T06:25:33.889Z,0
2017-11-22T06:26:34.461Z,0
2017-11-22T06:27:35.039Z,0
2017-11-22T06:28:35.624Z,0
2017-11-22T06:29:36.197Z,0
2017-11-22T06:30:36.771Z,0
2017-11-22T06:31:37.356Z,0
2017-11-22T06:32:37.918Z,0
2017-11-22T06:33:38.493Z,0
2017-11-22T06:34:39.066Z,0
2017-11-22T06:35:39.639Z,0
2017-11-22T06:36:40.211Z,0
2017-11-22T06:37:40.788Z,0
2017-11-22T06:38:41.359Z,0
2017-11-22T06:39:41.933Z,0
2017-11-22T06:40:42.504Z,0
2017-11-22T06:41:43.080Z,0
2017-11-22T06:42:43.651Z,0
2017-11-22T06:43:44.228Z,0
2017-11-22T06:44:44.814Z,0
2017-11-22T06:45:45.388Z,0
2017-11-22T06:46:45.960Z,0
2017-11-22T06:47:46.534Z,0
2017-11-22T06:48:47.106Z,0
2017-11-22T06:49:47.689Z,0
2017-11-22T06:50:48.252Z,0
2017-11-22T06:51:48.841Z,0
2017-11-22T06:52:49.413Z,0
2017-11-22T06:53:49.994Z,0
2017-11-22T06:54:50.561Z,4
2017-11-22T06:55:51.134Z,4
2017-11-22T06:56:51.706Z,4
2017-11-22T06:57:52.280Z,0
2017-11-22T06:58:52.866Z,0
2017-11-22T06:59:53.442Z,4
2017-11-22T07:00:54.015Z,4
2017-11-22T07:01:54.590Z,4
2017-11-22T07:02:55.166Z,4
2017-11-22T07:03:55.740Z,4
2017-11-22T07:04:56.314Z,0
2017-11-22T07:05:56.903Z,4
2017-11-22T07:06:57.475Z,4
2017-11-22T07:07:58.064Z,8
2017-11-22T07:08:58.636Z,4
2017-11-22T07:09:59.212Z,8
2017-11-22T07:10:59.785Z,4
2017-11-22T07:12:00.359Z,8
2017-11-22T07:13:00.947Z,8
2017-11-22T07:14:01.521Z,4
2017-11-22T07:15:02.092Z,8
2017-11-22T07:16:02.666Z,8
2017-11-22T07:17:03.238Z,8
2017-11-22T07:18:03.814Z,12
2017-11-22T07:19:04.388Z,12
2017-11-22T07:20:04.962Z,12
2017-11-22T07:21:05.537Z,12
2017-11-22T07:22:06.161Z,12
2017-11-22T07:23:06.737Z,12
2017-11-22T07:24:07.312Z,12
2017-11-22T07:25:07.886Z,12
2017-11-22T07:26:08.460Z,16
2017-11-22T07:27:09.036Z,16
2017-11-22T07:28:09.610Z,16
2017-11-22T07:29:10.187Z,20
2017-11-22T07:30:10.761Z,20
2017-11-22T07:31:11.336Z,16
2017-11-22T07:32:11.909Z,20
2017-11-22T07:33:12.485Z,20
2017-11-22T07:34:13.059Z,20
2017-11-22T07:35:13.633Z,24
2017-11-22T07:36:14.206Z,24
2017-11-22T07:37:14.780Z,24
2017-11-22T07:38:15.357Z,24
2017-11-22T07:39:15.930Z,28
2017-11-22T07:40:16.505Z,28
2017-11-22T07:41:17.095Z,28
2017-11-22T07:42:17.671Z,28
2017-11-22T07:43:18.244Z,28
2017-11-22T07:44:18.818Z,28
2017-11-22T07:45:19.395Z,32
2017-11-22T07:46:19.984Z,32
2017-11-22T07:47:20.558Z,36
2017-11-22T07:48:21.131Z,36
2017-11-22T07:49:21.706Z,40
2017-11-22T07:50:22.281Z,40
2017-11-22T07:51:22.855Z,40
2017-11-22T07:52:23.444Z,40
2017-11-22T07:53:24.018Z,44
2017-11-22T07:54:24.614Z,44
2017-11-22T07:55:25.182Z,44
2017-11-22T07:56:25.757Z,48
2017-11-22T07:57:26.330Z,52
2017-11-22T07:58:26.902Z,56
2017-11-22T07:59:27.476Z,56
2017-11-22T08:00:28.051Z,60
2017-11-22T08:01:28.625Z,64
2017-11-22T08:02:29.199Z,64
2017-11-22T08:03:29.774Z,72
2017-11-22T08:04:30.350Z,72
2017-11-22T08:05:30.940Z,72
2017-11-22T08:06:31.529Z,76
2017-11-22T08:07:32.104Z,76
2017-11-22T08:08:32.676Z,76
2017-11-22T08:09:33.252Z,80
2017-11-22T08:10:33.826Z,84
2017-11-22T08:11:34.401Z,88
2017-11-22T08:12:34.974Z,88
2017-11-22T08:13:35.565Z,92
2017-11-22T08:14:36.129Z,92
2017-11-22T08:15:36.711Z,96
2017-11-22T08:16:37.287Z,96
2017-11-22T08:17:37.859Z,100
2017-11-22T08:18:38.450Z,100
2017-11-22T08:19:39.012Z,104
2017-11-22T08:20:39.587Z,108
2017-11-22T08:21:40.164Z,112
2017-11-22T08:22:40.739Z,116
2017-11-22T08:23:41.313Z,120
2017-11-22T08:24:41.890Z,120
2017-11-22T08:25:42.466Z,124
2017-11-22T08:26:43.053Z,128
2017-11-22T08:27:43.627Z,128
2017-11-22T08:28:44.206Z,132
2017-11-22T08:29:44.778Z,136
2017-11-22T08:30:45.355Z,140
2017-11-22T08:31:45.928Z,140
2017-11-22T08:32:46.505Z,144
2017-11-22T08:33:47.081Z,148
2017-11-22T08:34:47.656Z,152
2017-11-22T08:35:48.232Z,156
2017-11-22T08:36:48.809Z,160
2017-11-22T08:37:49.383Z,164
2017-11-22T08:38:49.962Z,164
2017-11-22T08:39:50.535Z,172
2017-11-22T08:40:51.110Z,176
2017-11-22T08:41:51.686Z,180
2017-11-22T08:42:52.262Z,184
2017-11-22T08:43:52.852Z,184
2017-11-22T08:44:53.427Z,184
2017-11-22T08:45:54.002Z,188
2017-11-22T08:46:54.586Z,188
2017-11-22T08:47:55.154Z,192
2017-11-22T08:48:55.729Z,192
2017-11-22T08:49:56.306Z,196
2017-11-22T08:50:56.880Z,200
2017-11-22T08:51:57.456Z,200
2017-11-22T08:52:58.034Z,204
2017-11-22T08:53:58.609Z,204
2017-11-22T08:54:59.185Z,208
2017-11-22T08:55:59.761Z,208
2017-11-22T08:57:00.337Z,208
2017-11-22T08:58:00.913Z,208
2017-11-22T08:59:01.489Z,208
2017-11-22T09:00:02.064Z,200
2017-11-22T09:01:02.638Z,200
2017-11-22T09:02:03.219Z,204
2017-11-22T09:03:03.805Z,216
2017-11-22T09:04:04.381Z,216
2017-11-22T09:05:04.955Z,220
2017-11-22T09:06:05.557Z,228
2017-11-22T09:07:06.125Z,232
2017-11-22T09:08:06.713Z,236
2017-11-22T09:09:07.287Z,244
2017-11-22T09:10:07.862Z,244
2017-11-22T09:11:08.439Z,248
2017-11-22T09:12:09.016Z,256
2017-11-22T09:13:09.593Z,260
2017-11-22T09:14:10.172Z,268
2017-11-22T09:15:10.773Z,268
2017-11-22T09:16:11.337Z,272
2017-11-22T09:17:11.914Z,276
2017-11-22T09:18:12.490Z,284
2017-11-22T09:19:13.067Z,284
2017-11-22T09:20:13.644Z,288
2017-11-22T09:21:14.220Z,296
2017-11-22T09:22:14.798Z,300
2017-11-22T09:23:15.574Z,300
2017-11-22T09:24:16.152Z,300
2017-11-22T09:25:16.755Z,304
2017-11-22T09:26:17.334Z,300
2017-11-22T09:27:17.926Z,304
2017-11-22T09:28:18.500Z,312
2017-11-22T09:29:19.086Z,312
2017-11-22T09:30:19.670Z,316
2017-11-22T09:31:20.248Z,320
2017-11-22T09:32:20.829Z,320
2017-11-22T09:33:21.451Z,324
2017-11-22T09:34:21.977Z,328
2017-11-22T09:35:22.567Z,332
2017-11-22T09:36:23.149Z,336
2017-11-22T09:37:23.735Z,336
2017-11-22T09:38:24.314Z,336
2017-11-22T09:39:24.903Z,336
2017-11-22T09:40:25.495Z,332
2017-11-22T09:41:26.095Z,332
2017-11-22T09:42:26.679Z,332
2017-11-22T09:43:27.254Z,332
2017-11-22T09:44:27.833Z,336
2017-11-22T09:45:28.409Z,340
2017-11-22T09:46:28.986Z,344
2017-11-22T09:47:29.565Z,344
2017-11-22T09:48:30.141Z,344
2017-11-22T09:49:30.718Z,352
2017-11-22T09:50:31.295Z,360
2017-11-22T09:51:31.870Z,372
2017-11-22T09:52:32.448Z,376
2017-11-22T09:53:33.027Z,376
2017-11-22T09:54:33.600Z,376
2017-11-22T09:55:34.176Z,368
2017-11-22T09:56:34.760Z,368
2017-11-22T09:57:35.330Z,372
2017-11-22T09:58:36.056Z,368
2017-11-22T09:59:36.632Z,360
2017-11-22T10:00:37.209Z,348
2017-11-22T10:01:37.787Z,340
2017-11-22T10:02:38.364Z,336
2017-11-22T10:03:38.941Z,336
2017-11-22T10:04:39.517Z,328
2017-11-22T10:05:40.093Z,332
2017-11-22T10:06:40.671Z,332
2017-11-22T10:07:41.248Z,340
2017-11-22T10:08:41.824Z,344
2017-11-22T10:09:42.403Z,344
2017-11-22T10:10:42.978Z,340
2017-11-22T10:11:43.557Z,332
2017-11-22T10:12:44.133Z,324
2017-11-22T10:13:44.709Z,328
2017-11-22T10:14:45.288Z,348
2017-11-22T10:15:45.865Z,368
2017-11-22T10:16:46.444Z,356
2017-11-22T10:17:47.020Z,348
2017-11-22T10:18:47.595Z,336
2017-11-22T10:21:03.640Z,348
2017-11-22T10:22:04.216Z,344
2017-11-22T10:23:04.791Z,352
2017-11-22T10:24:05.369Z,348
2017-11-22T10:25:05.960Z,344
2017-11-22T10:26:06.537Z,348
2017-11-22T10:27:07.114Z,356
2017-11-22T10:28:07.694Z,348
2017-11-22T10:29:08.269Z,356
2017-11-22T10:30:08.848Z,364
2017-11-22T10:31:09.425Z,360
2017-11-22T10:32:10.008Z,360
2017-11-22T10:33:10.596Z,368
2017-11-22T10:34:11.172Z,372
2017-11-22T10:35:11.749Z,388
2017-11-22T10:36:12.328Z,384
2017-11-22T10:37:12.905Z,360
2017-11-22T10:38:13.482Z,328
2017-11-22T10:39:14.059Z,320
2017-11-22T10:40:14.637Z,332
2017-11-22T10:41:15.214Z,360
2017-11-22T10:42:15.792Z,372
2017-11-22T10:43:16.368Z,360
2017-11-22T10:44:16.947Z,352
2017-11-22T10:45:17.524Z,344
2017-11-22T10:46:18.102Z,328
2017-11-22T10:47:18.680Z,300
2017-11-22T10:48:19.255Z,284
2017-11-22T10:49:19.834Z,260
2017-11-22T10:50:20.414Z,244
2017-11-22T10:51:20.987Z,208
2017-11-22T10:52:21.575Z,220
2017-11-22T10:53:22.142Z,232
2017-11-22T10:54:22.720Z,244
2017-11-22T10:55:23.312Z,244
2017-11-22T10:56:23.890Z,248
2017-11-22T10:57:24.468Z,268
2017-11-22T10:58:25.044Z,288
2017-11-22T10:59:25.626Z,284
2017-11-22T11:00:26.201Z,288
2017-11-22T11:01:26.781Z,292
2017-11-22T11:02:27.354Z,284
2017-11-22T11:03:27.933Z,308
2017-11-22T11:04:28.509Z,324
2017-11-22T11:05:29.088Z,332
2017-11-22T11:06:29.666Z,340
2017-11-22T11:07:30.243Z,360
2017-11-22T11:08:30.820Z,368
2017-11-22T11:09:31.398Z,360
2017-11-22T11:10:31.976Z,352
2017-11-22T11:11:32.553Z,356
2017-11-22T11:12:33.131Z,360
2017-11-22T11:13:33.709Z,368
2017-11-22T11:14:34.287Z,380
2017-11-22T11:15:34.866Z,388
2017-11-22T11:16:35.442Z,420
2017-11-22T11:17:36.018Z,432
2017-11-22T11:18:36.595Z,412
2017-11-22T11:19:37.174Z,428
2017-11-22T11:20:37.752Z,432
2017-11-22T11:21:38.327Z,440
2017-11-22T11:22:38.907Z,456
2017-11-22T11:23:39.491Z,464
2017-11-22T11:24:40.061Z,480
2017-11-22T11:25:40.652Z,500
2017-11-22T11:26:41.245Z,504
2017-11-22T11:27:41.822Z,520
2017-11-22T11:28:42.401Z,532
2017-11-22T11:29:42.992Z,528
2017-11-22T11:30:43.569Z,516
2017-11-22T11:31:44.146Z,508
2017-11-22T11:32:44.725Z,504
2017-11-22T11:33:45.306Z,500
2017-11-22T11:34:45.879Z,496
2017-11-22T11:35:46.457Z,492
2017-11-22T11:36:47.036Z,480
2017-11-22T11:37:47.612Z,488
2017-11-22T11:38:48.189Z,480
2017-11-22T11:39:48.767Z,476
2017-11-22T11:40:49.343Z,472
2017-11-22T11:41:49.927Z,468
2017-11-22T11:42:50.499Z,468
2017-11-22T11:43:51.091Z,472
2017-11-22T11:44:51.668Z,480
2017-11-22T11:45:52.258Z,472
2017-11-22T11:46:52.836Z,476
2017-11-22T11:47:53.416Z,464
2017-11-22T11:48:53.991Z,464
2017-11-22T11:49:54.568Z,452
2017-11-22T11:50:55.149Z,456
2017-11-22T11:51:55.737Z,460
2017-11-22T11:52:56.314Z,468
2017-11-22T11:53:56.892Z,444
2017-11-22T11:54:57.469Z,428
2017-11-22T11:55:58.047Z,428
2017-11-22T11:56:58.624Z,432
2017-11-22T11:57:59.201Z,432
2017-11-22T11:58:59.780Z,440
2017-11-22T12:00:00.356Z,444
2017-11-22T12:01:00.955Z,440
2017-11-22T12:02:01.525Z,436
2017-11-22T12:03:02.104Z,428
2017-11-22T12:04:02.681Z,432
2017-11-22T12:05:03.261Z,436
2017-11-22T12:06:03.835Z,436
2017-11-22T12:07:04.422Z,440
2017-11-22T12:08:05.005Z,440
2017-11-22T12:09:05.583Z,448
2017-11-22T12:10:06.163Z,452
2017-11-22T12:11:06.740Z,444
2017-11-22T12:12:07.314Z,444
2017-11-22T12:13:07.893Z,436
2017-11-22T12:14:08.470Z,428
2017-11-22T12:15:09.046Z,428
2017-11-22T12:16:09.622Z,420
2017-11-22T12:17:10.199Z,416
2017-11-22T12:18:10.776Z,424
2017-11-22T12:19:11.356Z,432
2017-11-22T12:20:11.930Z,428
2017-11-22T12:21:12.509Z,424
2017-11-22T12:22:13.087Z,428
2017-11-22T12:23:13.664Z,428
2017-11-22T12:24:14.241Z,420
2017-11-22T12:25:14.817Z,412
2017-11-22T12:26:15.397Z,412
2017-11-22T12:27:15.979Z,412
2017-11-22T12:28:16.552Z,424
2017-11-22T12:29:17.130Z,436
2017-11-22T12:30:17.720Z,448
2017-11-22T12:31:18.289Z,444
2017-11-22T12:32:18.866Z,464
2017-11-22T12:33:19.451Z,492
2017-11-22T12:34:20.022Z,504
2017-11-22T12:35:20.601Z,500
2017-11-22T12:36:21.179Z,492
2017-11-22T12:37:21.759Z,504
2017-11-22T12:38:22.335Z,512
2017-11-22T12:39:22.913Z,512
2017-11-22T12:40:23.517Z,500
2017-11-22T12:41:24.084Z,492
2017-11-22T12:42:24.660Z,488
2017-11-22T12:43:25.237Z,480
2017-11-22T12:44:25.816Z,464
2017-11-22T12:45:26.409Z,444
2017-11-22T12:46:26.988Z,420
2017-11-22T12:47:27.563Z,404
2017-11-22T12:48:28.143Z,424
2017-11-22T12:49:28.734Z,424
2017-11-22T12:50:29.315Z,420
2017-11-22T12:51:29.892Z,424
2017-11-22T12:52:30.468Z,424
2017-11-22T12:53:31.061Z,424
2017-11-22T12:54:31.639Z,428
2017-11-22T12:55:32.225Z,428
2017-11-22T12:56:32.795Z,428
2017-11-22T12:57:33.374Z,428
2017-11-22T12:58:33.956Z,428
2017-11-22T12:59:34.529Z,432
2017-11-22T13:00:35.109Z,428
2017-11-22T13:01:35.700Z,424
2017-11-22T13:02:36.276Z,428
2017-11-22T13:03:36.855Z,420
2017-11-22T13:04:37.432Z,420
2017-11-22T13:05:38.009Z,424
2017-11-22T13:06:38.590Z,420
2017-11-22T13:07:39.164Z,420
2017-11-22T13:08:39.762Z,416
2017-11-22T13:09:40.320Z,412
2017-11-22T13:10:40.998Z,408
2017-11-22T13:11:41.575Z,404
2017-11-22T13:12:42.155Z,400
2017-11-22T13:13:42.732Z,396
2017-11-22T13:14:43.310Z,396
2017-11-22T13:15:43.910Z,392
2017-11-22T13:16:44.481Z,392
2017-11-22T13:17:45.058Z,384
2017-11-22T13:18:45.638Z,388
2017-11-22T13:19:46.236Z,388
2017-11-22T13:20:46.819Z,384
2017-11-22T13:21:47.411Z,384
2017-11-22T13:22:47.990Z,380
2017-11-22T13:23:48.571Z,380
2017-11-22T13:24:49.149Z,380
2017-11-22T13:25:49.727Z,380
2017-11-22T13:26:50.317Z,376
2017-11-22T13:27:50.900Z,372
2017-11-22T13:28:51.472Z,372
2017-11-22T13:29:52.049Z,368
2017-11-22T13:30:52.628Z,364
2017-11-22T13:31:53.205Z,364
2017-11-22T13:32:53.783Z,364
2017-11-22T13:33:54.363Z,364
2017-11-22T13:34:54.942Z,364
2017-11-22T13:35:55.517Z,364
2017-11-22T13:36:56.109Z,364
2017-11-22T13:37:56.688Z,364
2017-11-22T13:38:57.268Z,360
2017-11-22T13:39:57.843Z,352
2017-11-22T13:40:58.424Z,352
2017-11-22T13:41:59.005Z,356
2017-11-22T13:42:59.580Z,356
2017-11-22T13:44:00.167Z,352
2017-11-22T13:45:00.747Z,352
2017-11-22T13:46:01.326Z,352
2017-11-22T13:47:01.904Z,356
2017-11-22T13:48:02.481Z,352
2017-11-22T13:49:03.060Z,348
2017-11-22T13:50:03.637Z,348
2017-11-22T13:51:04.219Z,348
2017-11-22T13:52:04.795Z,344
2017-11-22T13:53:05.372Z,344
2017-11-22T13:54:05.950Z,340
2017-11-22T13:55:06.529Z,340
2017-11-22T13:56:07.105Z,340
2017-11-22T13:57:07.685Z,336
2017-11-22T13:58:08.262Z,336
2017-11-22T13:59:08.855Z,332
2017-11-22T14:00:09.435Z,328
2017-11-22T14:01:10.013Z,324
2017-11-22T14:02:10.590Z,324
2017-11-22T14:03:11.170Z,324
2017-11-22T14:04:11.747Z,320
2017-11-22T14:05:12.324Z,320
2017-11-22T14:06:12.903Z,316
2017-11-22T14:07:13.486Z,312
2017-11-22T14:08:14.059Z,308
2017-11-22T14:09:14.639Z,308
2017-11-22T14:10:15.216Z,308
2017-11-22T14:11:15.810Z,304
2017-11-22T14:12:16.388Z,304
2017-11-22T14:13:16.965Z,304
2017-11-22T14:14:17.545Z,300
2017-11-22T14:15:18.146Z,296
2017-11-22T14:16:18.700Z,292
2017-11-22T14:17:19.280Z,296
2017-11-22T14:18:19.857Z,292
2017-11-22T14:19:20.436Z,288
2017-11-22T14:20:21.015Z,288
2017-11-22T14:21:21.593Z,280
2017-11-22T14:22:22.180Z,280
2017-11-22T14:23:22.749Z,276
2017-11-22T14:24:23.324Z,272
2017-11-22T14:25:23.901Z,276
2017-11-22T14:26:24.479Z,268
2017-11-22T14:27:25.056Z,268